createdAt,value
2023-02-24T00:01:51.828Z,61.60
2023-02-24T00:04:26.251Z,57.70
2023-02-24T00:07:00.104Z,64.40
2023-02-24T00:09:34.637Z,66.90
2023-02-24T00:12:09.188Z,69.80
2023-02-24T00:14:47.607Z,60.80
2023-02-24T00:17:20.849Z,71.60
2023-02-24T00:19:53.910Z,60.50
2023-02-24T00:22:26.819Z,79.60
2023-02-24T00:25:01.598Z,65.70
2023-02-24T00:27:34.471Z,59.70
2023-02-24T00:30:11.315Z,79.10
2023-02-24T00:32:46.056Z,72.30
2023-02-24T00:35:20.618Z,84.60
2023-02-24T00:37:54.700Z,76.40
2023-02-24T00:40:30.981Z,79.50
2023-02-24T00:43:08.409Z,88.00
2023-02-24T00:45:42.408Z,86.80
2023-02-24T00:48:21.309Z,91.50
2023-02-24T00:50:55.303Z,80.90
2023-02-24T00:53:30.318Z,81.00
2023-02-24T00:56:07.700Z,84.00
2023-02-24T00:58:43.274Z,88.90
2023-02-24T01:01:18.952Z,84.40
2023-02-24T01:03:54.914Z,90.60
2023-02-24T01:06:29.584Z,92.10
2023-02-24T01:09:02.609Z,92.60
2023-02-24T01:11:58.089Z,81.10
2023-02-24T01:14:32.559Z,90.50
2023-02-24T01:17:05.748Z,98.90
2023-02-24T01:19:39.205Z,97.40
2023-02-24T01:22:14.813Z,106.50
2023-02-24T01:24:47.890Z,82.80
2023-02-24T01:27:21.103Z,100.90
2023-02-24T01:29:54.769Z,85.70
2023-02-24T01:32:32.232Z,87.80
2023-02-24T01:35:06.399Z,81.10
2023-02-24T01:37:39.995Z,65.20
2023-02-24T01:40:21.846Z,69.50
2023-02-24T01:42:56.972Z,63.90
2023-02-24T01:45:30.182Z,64.90
2023-02-24T01:48:05.480Z,63.00
2023-02-24T01:50:40.149Z,53.10
2023-02-24T01:53:15.869Z,45.20
2023-02-24T01:55:50.177Z,43.80
2023-02-24T01:58:28.018Z,53.00
2023-02-24T02:01:08.923Z,43.40
2023-02-24T02:03:43.325Z,42.40
2023-02-24T02:06:18.538Z,41.80
2023-02-24T02:08:51.580Z,46.60
2023-02-24T02:11:24.580Z,43.70
2023-02-24T02:14:01.830Z,45.50
2023-02-24T02:16:46.736Z,42.70
2023-02-24T02:22:36.853Z,34.00
2023-02-24T02:25:13.168Z,44.10
2023-02-24T02:27:58.437Z,34.70
2023-02-24T02:31:02.351Z,36.10
2023-02-24T02:34:07.141Z,48.40
2023-02-24T02:36:45.159Z,34.60
2023-02-24T02:39:21.032Z,34.20
2023-02-24T02:41:55.951Z,36.80
2023-02-24T02:44:33.057Z,31.70
2023-02-24T02:47:09.526Z,29.40
2023-02-24T02:49:44.344Z,31.80
2023-02-24T02:52:21.662Z,29.00
2023-02-24T02:54:56.455Z,26.70
2023-02-24T02:57:31.295Z,30.00
2023-02-24T03:00:12.617Z,29.00
2023-02-24T03:02:48.170Z,34.30
2023-02-24T03:05:22.564Z,28.60
2023-02-24T03:07:58.706Z,33.70
2023-02-24T03:10:34.622Z,30.30
2023-02-24T03:13:07.721Z,29.30
2023-02-24T03:15:42.747Z,29.00
2023-02-24T03:18:18.774Z,29.50
2023-02-24T03:20:57.694Z,28.60
2023-02-24T03:23:33.914Z,29.90
2023-02-24T03:26:17.178Z,26.10
2023-02-24T03:28:59.545Z,27.00
2023-02-24T03:31:35.056Z,28.10
2023-02-24T03:34:09.488Z,28.80
2023-02-24T03:36:47.758Z,29.20
2023-02-24T03:39:21.324Z,35.20
2023-02-24T03:42:04.764Z,26.50
2023-02-24T03:44:39.893Z,27.30
2023-02-24T03:47:20.557Z,26.10
2023-02-24T03:49:54.060Z,26.30
2023-02-24T03:52:32.948Z,27.80
2023-02-24T03:55:18.564Z,27.60
2023-02-24T03:58:01.208Z,27.00
2023-02-24T04:00:45.418Z,24.20
2023-02-24T04:03:27.676Z,26.50
2023-02-24T04:06:14.043Z,25.30
2023-02-24T04:09:01.611Z,29.20
2023-02-24T04:11:37.721Z,25.60
2023-02-24T04:14:12.285Z,27.50
2023-02-24T04:16:50.057Z,29.80
2023-02-24T04:19:24.384Z,27.90
2023-02-24T04:21:57.653Z,28.90
2023-02-24T04:24:32.408Z,20.00
2023-02-24T04:27:07.797Z,25.00
2023-02-24T04:29:49.905Z,30.30
2023-02-24T04:32:25.488Z,24.60
2023-02-24T04:35:07.645Z,26.50
2023-02-24T04:37:44.706Z,23.10
2023-02-24T04:40:22.275Z,26.00
2023-02-24T04:42:55.984Z,24.80
2023-02-24T04:57:19.116Z,24.00
2023-02-24T04:59:54.342Z,25.90
2023-02-24T05:02:25.453Z,29.30
2023-02-24T05:04:57.079Z,27.10
2023-02-24T05:10:00.214Z,30.40
2023-02-24T05:12:40.204Z,29.00
2023-02-24T05:15:12.342Z,25.90
2023-02-24T05:17:43.476Z,25.30
2023-02-24T05:20:32.603Z,24.70
2023-02-24T05:23:04.343Z,25.30
2023-02-24T05:25:38.105Z,28.60
2023-02-24T05:28:09.378Z,28.60
2023-02-24T05:30:40.599Z,21.90
2023-02-24T05:33:11.899Z,19.30
2023-02-24T05:35:43.912Z,28.30
2023-02-24T05:38:15.359Z,25.00
2023-02-24T05:40:48.804Z,25.00
2023-02-24T05:43:20.211Z,24.10
2023-02-24T05:45:51.149Z,26.50
2023-02-24T05:48:25.286Z,32.00
2023-02-24T05:50:56.340Z,21.80
2023-02-24T05:53:27.396Z,30.90
2023-02-24T05:55:59.300Z,20.90
2023-02-24T05:58:32.801Z,26.00
2023-02-24T06:01:19.530Z,26.10
2023-02-24T06:03:54.576Z,22.00
2023-02-24T06:06:25.795Z,22.60
2023-02-24T06:09:02.594Z,24.90
2023-02-24T06:11:34.308Z,27.90
2023-02-24T06:14:07.527Z,23.90
2023-02-24T06:16:44.297Z,26.00
2023-02-24T06:19:17.644Z,26.60
2023-02-24T06:21:49.798Z,23.20
2023-02-24T06:24:23.755Z,24.80
2023-02-24T06:29:29.887Z,21.20
2023-02-24T06:32:09.059Z,24.70
2023-02-24T06:34:41.051Z,21.50
2023-02-24T06:37:13.190Z,26.60
2023-02-24T06:39:44.409Z,26.60
2023-02-24T06:42:16.023Z,23.30
2023-02-24T06:47:18.237Z,20.60
2023-02-24T06:49:50.356Z,17.70
2023-02-24T06:52:22.707Z,18.70
2023-02-24T06:57:25.656Z,19.80
2023-02-24T06:59:56.983Z,29.40
2023-02-24T07:05:06.610Z,20.50
2023-02-24T07:07:37.898Z,25.00
2023-02-24T07:10:12.167Z,22.90
2023-02-24T07:12:43.779Z,20.50
2023-02-24T07:15:17.253Z,19.60
2023-02-24T07:17:51.113Z,18.80
2023-02-24T07:20:25.822Z,17.30
2023-02-24T07:22:57.596Z,19.60
2023-02-24T07:25:34.815Z,19.50
2023-02-24T07:28:07.799Z,19.10
2023-02-24T07:30:39.272Z,17.70
2023-02-24T07:33:19.650Z,23.90
2023-02-24T07:35:52.715Z,14.90
2023-02-24T07:38:24.488Z,17.70
2023-02-24T07:43:27.245Z,12.70
2023-02-24T07:45:58.641Z,16.50
2023-02-24T07:48:30.520Z,17.30
2023-02-24T07:51:02.117Z,19.50
2023-02-24T07:53:33.653Z,17.20
2023-02-24T07:56:13.812Z,24.80
2023-02-24T07:58:44.981Z,19.30
2023-02-24T08:01:23.354Z,18.80
2023-02-24T08:03:56.567Z,16.30
2023-02-24T08:06:31.881Z,17.30
2023-02-24T08:09:17.101Z,15.50
2023-02-24T08:11:52.426Z,15.40
2023-02-24T08:14:25.248Z,17.30
2023-02-24T08:16:59.807Z,14.60
2023-02-24T08:19:39.986Z,16.40
2023-02-24T08:22:20.623Z,18.00
2023-02-24T08:24:54.589Z,14.40
2023-02-24T08:27:30.610Z,17.10
2023-02-24T08:30:03.152Z,14.70
2023-02-24T08:32:37.468Z,15.50
2023-02-24T08:35:15.648Z,16.20
2023-02-24T08:37:48.562Z,14.10
2023-02-24T08:40:38.239Z,20.00
2023-02-24T08:43:19.870Z,16.20
2023-02-24T08:45:51.723Z,14.50
2023-02-24T08:48:32.560Z,27.60
2023-02-24T08:53:34.812Z,13.30
2023-02-24T08:56:09.829Z,14.90
2023-02-24T08:58:47.598Z,18.00
2023-02-24T09:01:20.640Z,14.60
2023-02-24T09:03:53.641Z,15.30
2023-02-24T09:06:36.724Z,15.60
2023-02-24T09:09:19.079Z,16.60
2023-02-24T09:11:56.671Z,15.70
2023-02-24T09:14:29.522Z,15.30
2023-02-24T09:17:03.740Z,15.30
2023-02-24T09:19:56.074Z,17.10
2023-02-24T09:22:38.104Z,16.10
2023-02-24T09:25:21.952Z,12.70
2023-02-24T09:27:57.348Z,15.80
2023-02-24T09:30:51.651Z,13.60
2023-02-24T09:33:24.643Z,12.50
2023-02-24T09:36:03.482Z,12.30
2023-02-24T09:38:52.997Z,15.20
2023-02-24T09:41:45.568Z,15.20
2023-02-24T09:44:18.683Z,15.60
2023-02-24T09:46:55.269Z,12.30
2023-02-24T09:49:37.150Z,12.10
2023-02-24T09:52:17.499Z,13.10
2023-02-24T09:55:15.170Z,14.70
2023-02-24T09:58:02.194Z,12.00
2023-02-24T10:00:33.988Z,14.10
2023-02-24T10:03:19.952Z,14.40
2023-02-24T10:05:59.163Z,11.80
2023-02-24T10:08:32.215Z,12.90
2023-02-24T10:11:08.516Z,13.60
2023-02-24T10:13:44.186Z,13.70
2023-02-24T10:16:15.939Z,10.90
2023-02-24T10:18:48.781Z,13.00
2023-02-24T10:21:30.958Z,13.00
2023-02-24T10:24:08.672Z,17.90
2023-02-24T10:26:59.702Z,14.60
2023-02-24T10:29:39.184Z,12.40
2023-02-24T10:32:24.356Z,15.90
2023-02-24T10:34:56.597Z,11.40
2023-02-24T10:37:29.660Z,10.40
2023-02-24T10:40:10.273Z,10.50
2023-02-24T10:42:46.179Z,12.80
2023-02-24T10:45:26.000Z,10.20
2023-02-24T10:47:58.418Z,10.90
2023-02-24T10:50:34.902Z,15.10
2023-02-24T10:53:26.805Z,10.70
2023-02-24T10:56:15.477Z,12.60
2023-02-24T10:58:57.056Z,12.20
2023-02-24T11:01:41.046Z,11.30
2023-02-24T11:04:23.271Z,10.70
2023-02-24T11:09:35.471Z,11.10
2023-02-24T11:12:26.290Z,14.90
2023-02-24T11:15:15.775Z,12.60
2023-02-24T11:17:51.218Z,12.70
2023-02-24T11:20:42.327Z,10.80
2023-02-24T11:23:19.734Z,10.20
2023-02-24T11:25:52.158Z,12.20
2023-02-24T11:28:29.683Z,11.10
2023-02-24T11:31:05.018Z,9.40
2023-02-24T11:33:40.139Z,9.50
2023-02-24T11:36:14.459Z,9.50
2023-02-24T11:38:47.121Z,11.10
2023-02-24T11:41:21.439Z,12.70
2023-02-24T11:43:58.819Z,10.50
2023-02-24T11:46:34.062Z,9.90
2023-02-24T11:49:05.451Z,10.10
2023-02-24T11:51:38.163Z,8.80
2023-02-24T11:54:12.721Z,10.40
2023-02-24T11:56:45.453Z,10.60
2023-02-24T11:59:22.566Z,10.40
2023-02-24T12:01:53.868Z,10.20
2023-02-24T12:04:27.300Z,11.60
2023-02-24T12:07:01.195Z,10.30
2023-02-24T12:09:33.537Z,10.70
2023-02-24T12:12:07.488Z,8.60
2023-02-24T12:14:39.544Z,9.10
2023-02-24T12:17:18.646Z,10.70
2023-02-24T12:19:57.566Z,9.80
2023-02-24T12:22:32.834Z,9.70
2023-02-24T12:25:05.430Z,10.00
2023-02-24T12:27:42.582Z,11.00
2023-02-24T12:30:34.758Z,10.10
2023-02-24T12:33:10.573Z,11.70
2023-02-24T12:35:44.755Z,11.70
2023-02-24T12:38:22.958Z,9.40
2023-02-24T12:40:57.509Z,10.40
2023-02-24T12:43:29.617Z,9.60
2023-02-24T12:46:02.826Z,10.50
2023-02-24T12:48:46.791Z,9.90
2023-02-24T12:51:21.755Z,10.20
2023-02-24T12:53:57.559Z,10.20
2023-02-24T12:56:29.600Z,10.00
2023-02-24T12:59:02.567Z,12.00
2023-02-24T13:01:35.434Z,9.50
2023-02-24T13:04:12.703Z,11.30
2023-02-24T13:06:56.905Z,12.90
2023-02-24T13:11:58.320Z,11.60
2023-02-24T13:14:32.036Z,11.00
2023-02-24T13:17:07.304Z,11.20
2023-02-24T13:19:39.191Z,12.00
2023-02-24T13:22:20.129Z,15.20
2023-02-24T13:24:58.559Z,10.20
2023-02-24T13:27:29.692Z,10.00
2023-02-24T13:30:01.937Z,10.40
2023-02-24T13:32:33.990Z,10.90
2023-02-24T13:35:06.955Z,9.10
2023-02-24T13:37:39.153Z,10.20
2023-02-24T13:42:40.312Z,12.30
2023-02-24T13:45:20.803Z,10.70
2023-02-24T13:48:09.463Z,13.40
2023-02-24T13:50:41.735Z,14.50
2023-02-24T13:53:18.662Z,15.70
2023-02-24T13:55:52.575Z,12.80
2023-02-24T13:58:37.287Z,13.50
2023-02-24T14:01:09.048Z,11.30
2023-02-24T14:03:41.365Z,12.90
2023-02-24T14:06:16.676Z,13.00
2023-02-24T14:08:49.207Z,14.80
2023-02-24T14:11:22.057Z,15.10
2023-02-24T14:13:54.073Z,14.40
2023-02-24T14:16:28.452Z,14.70
2023-02-24T14:19:02.114Z,12.50
2023-02-24T14:21:34.337Z,14.00
2023-02-24T14:24:06.581Z,13.40
2023-02-24T14:26:46.333Z,12.90
2023-02-24T14:29:17.747Z,12.90
2023-02-24T14:31:52.683Z,17.00
2023-02-24T14:34:24.546Z,14.90
2023-02-24T14:36:58.658Z,15.00
2023-02-24T14:39:30.518Z,16.00
2023-02-24T14:42:12.043Z,16.50
2023-02-24T14:44:44.533Z,12.20
2023-02-24T14:47:16.333Z,19.40
2023-02-24T14:49:55.572Z,11.40
2023-02-24T14:52:29.454Z,13.00
2023-02-24T14:55:01.452Z,13.20
2023-02-24T14:57:34.832Z,12.80
2023-02-24T15:00:11.872Z,12.60
2023-02-24T15:02:44.273Z,13.50
2023-02-24T15:05:15.552Z,12.90
2023-02-24T15:10:26.112Z,11.80
2023-02-24T15:12:59.715Z,12.40
2023-02-24T15:15:38.914Z,14.40
2023-02-24T15:18:13.809Z,12.90
2023-02-24T15:20:44.784Z,14.40
2023-02-24T15:23:29.351Z,12.00
2023-02-24T15:26:00.735Z,12.20
2023-02-24T15:28:33.246Z,11.80
2023-02-24T15:31:07.052Z,12.30
2023-02-24T15:33:40.791Z,14.70
2023-02-24T15:36:12.676Z,11.60
2023-02-24T15:38:44.060Z,16.00
2023-02-24T15:41:15.301Z,11.00
2023-02-24T15:43:50.600Z,10.40
2023-02-24T15:46:26.332Z,10.00
2023-02-24T15:49:01.988Z,10.90
2023-02-24T15:51:37.051Z,12.50
2023-02-24T15:54:08.828Z,12.20
2023-02-24T15:56:40.233Z,12.90
2023-02-24T15:59:12.575Z,10.20
2023-02-24T16:01:44.311Z,10.30
2023-02-24T16:04:15.491Z,13.40
2023-02-24T16:06:54.527Z,15.60
2023-02-24T16:09:27.540Z,17.70
2023-02-24T16:11:58.847Z,10.80
2023-02-24T16:14:29.875Z,10.40
2023-02-24T16:17:01.018Z,10.30
2023-02-24T16:19:35.133Z,14.30
2023-02-24T16:22:06.264Z,13.80
2023-02-24T16:24:38.444Z,15.10
2023-02-24T16:27:09.582Z,11.50
2023-02-24T16:29:40.841Z,16.60
2023-02-24T16:32:14.095Z,11.10
2023-02-24T16:34:45.944Z,12.20
2023-02-24T16:37:19.943Z,19.90
2023-02-24T16:39:51.174Z,15.30
2023-02-24T16:42:22.541Z,14.10
2023-02-24T16:44:53.643Z,12.40
2023-02-24T16:47:24.781Z,15.50
2023-02-24T16:52:29.012Z,14.80
2023-02-24T16:55:02.355Z,11.00
2023-02-24T16:57:33.825Z,15.70
2023-02-24T17:00:05.748Z,17.30
2023-02-24T17:02:37.066Z,11.90
2023-02-24T17:05:11.297Z,15.80
2023-02-24T17:07:42.434Z,13.60
2023-02-24T17:10:15.038Z,19.00
2023-02-24T17:12:47.928Z,20.70
2023-02-24T17:15:20.352Z,22.60
2023-02-24T17:17:52.001Z,18.10
2023-02-24T17:20:23.740Z,18.20
2023-02-24T17:22:55.800Z,15.50
2023-02-24T17:25:27.487Z,10.70
2023-02-24T17:30:28.792Z,15.40
2023-02-24T17:32:59.800Z,19.40
2023-02-24T17:35:31.090Z,17.20
2023-02-24T17:38:02.429Z,15.60
2023-02-24T17:40:35.406Z,17.90
2023-02-24T17:45:37.116Z,22.90
2023-02-24T17:48:08.433Z,20.30
2023-02-24T17:53:09.653Z,18.10
2023-02-24T17:56:01.638Z,20.70
2023-02-24T17:58:33.669Z,23.80
2023-02-24T18:01:06.031Z,21.60
2023-02-24T18:03:38.314Z,28.00
2023-02-24T18:06:10.779Z,20.10
2023-02-24T18:08:42.608Z,19.10
2023-02-24T18:11:16.432Z,25.60
2023-02-24T18:13:52.953Z,24.60
2023-02-24T18:16:24.651Z,25.40
2023-02-24T18:18:56.017Z,20.10
2023-02-24T18:21:27.115Z,27.00
2023-02-24T18:23:58.221Z,17.90
2023-02-24T18:26:29.690Z,21.80
2023-02-24T18:29:01.765Z,28.80
2023-02-24T18:31:33.478Z,30.10
2023-02-24T18:34:04.886Z,27.50
2023-02-24T18:36:35.897Z,30.30
2023-02-24T18:39:07.719Z,26.10
2023-02-24T18:41:38.868Z,29.50
2023-02-24T18:44:10.737Z,25.90
2023-02-24T18:46:41.910Z,32.30
2023-02-24T18:49:13.172Z,30.20
2023-02-24T18:51:46.212Z,30.40
2023-02-24T18:54:17.244Z,30.90
2023-02-24T18:56:50.513Z,24.80
2023-02-24T19:01:51.739Z,35.60
2023-02-24T19:04:23.063Z,34.70
2023-02-24T19:06:54.217Z,29.20
2023-02-24T19:09:25.111Z,27.40
2023-02-24T19:11:56.413Z,28.80
2023-02-24T19:14:27.408Z,31.40
2023-02-24T19:16:58.691Z,27.90
2023-02-24T19:19:30.404Z,26.20
2023-02-24T19:22:01.695Z,36.50
2023-02-24T19:24:33.065Z,38.70
2023-02-24T19:27:04.355Z,29.50
2023-02-24T19:29:38.536Z,28.90
2023-02-24T19:34:46.268Z,35.70
2023-02-24T19:37:17.383Z,34.60
2023-02-24T19:39:48.519Z,29.50
2023-02-24T19:42:19.599Z,37.40
2023-02-24T19:44:51.156Z,31.60
2023-02-24T19:47:22.852Z,41.30
2023-02-24T19:49:53.866Z,35.10
2023-02-24T19:52:25.083Z,28.70
2023-02-24T19:54:58.175Z,38.70
2023-02-24T19:57:29.261Z,38.00
2023-02-24T20:00:00.338Z,37.10
2023-02-24T20:02:31.521Z,35.00
2023-02-24T20:05:02.874Z,37.90
2023-02-24T20:07:39.021Z,40.10
2023-02-24T20:10:11.161Z,35.10
2023-02-24T20:12:42.533Z,39.30
2023-02-24T20:15:13.835Z,33.00
2023-02-24T20:17:49.702Z,35.60
2023-02-24T20:20:21.561Z,30.90
2023-02-24T20:22:53.306Z,38.00
2023-02-24T20:25:25.707Z,35.40
2023-02-24T20:30:26.784Z,47.70
2023-02-24T20:35:28.617Z,32.10
2023-02-24T20:38:00.522Z,32.90
2023-02-24T20:40:33.093Z,33.20
2023-02-24T20:43:05.872Z,35.70
2023-02-24T20:48:09.382Z,31.20
2023-02-24T20:50:40.500Z,29.60
2023-02-24T20:53:13.244Z,31.30
2023-02-24T20:55:48.185Z,40.40
2023-02-24T20:58:19.289Z,29.60
2023-02-24T21:00:50.416Z,38.50
2023-02-24T21:03:24.130Z,37.90
2023-02-24T21:06:09.210Z,39.00
2023-02-24T21:08:41.715Z,32.50
2023-02-24T21:11:12.801Z,34.40
2023-02-24T21:13:46.003Z,28.30
2023-02-24T21:16:17.344Z,35.00
2023-02-24T21:21:20.042Z,33.20
2023-02-24T21:23:52.364Z,32.20
2023-02-24T21:26:27.139Z,31.00
2023-02-24T21:28:59.609Z,36.20
2023-02-24T21:31:31.402Z,31.10
2023-02-24T21:34:04.112Z,32.00
2023-02-24T21:36:36.012Z,31.60
2023-02-24T21:39:08.001Z,30.70
2023-02-24T21:41:40.842Z,31.30
2023-02-24T21:44:12.946Z,29.00
2023-02-24T21:46:43.927Z,28.50
2023-02-24T21:49:15.159Z,32.10
2023-02-24T21:51:47.298Z,35.60
2023-02-24T21:54:18.699Z,31.80
2023-02-24T21:56:49.869Z,27.40
2023-02-24T21:59:21.292Z,35.60
2023-02-24T22:01:54.466Z,27.00
2023-02-24T22:04:25.836Z,31.00
2023-02-24T22:06:58.969Z,28.30
2023-02-24T22:09:31.921Z,33.70
2023-02-24T22:12:03.116Z,26.80
2023-02-24T22:14:35.920Z,29.00
2023-02-24T22:17:07.238Z,19.80
2023-02-24T22:19:39.148Z,29.20
2023-02-24T22:22:10.461Z,27.10
2023-02-24T22:24:41.933Z,25.20
2023-02-24T22:27:13.453Z,32.80
2023-02-24T22:29:45.851Z,25.80
2023-02-24T22:32:17.263Z,25.80
2023-02-24T22:34:49.064Z,32.00
2023-02-24T22:37:20.002Z,32.00
2023-02-24T22:39:51.350Z,25.60
2023-02-24T22:42:22.608Z,26.00
2023-02-24T22:44:53.779Z,25.20
2023-02-24T22:47:25.283Z,24.00
2023-02-24T22:49:56.545Z,29.20
2023-02-24T22:52:28.464Z,30.30
2023-02-24T22:54:59.653Z,30.00
2023-02-24T22:57:34.333Z,21.20
2023-02-24T23:00:09.972Z,23.60
2023-02-24T23:02:42.035Z,26.50
2023-02-24T23:05:16.771Z,25.70
2023-02-24T23:07:48.859Z,24.30
2023-02-24T23:10:22.016Z,22.60
2023-02-24T23:12:53.310Z,26.10
2023-02-24T23:15:24.594Z,22.80
2023-02-24T23:17:55.614Z,25.10
2023-02-24T23:20:27.178Z,25.70
2023-02-24T23:22:58.237Z,22.20
2023-02-24T23:25:30.551Z,24.00
2023-02-24T23:28:01.606Z,27.10
2023-02-24T23:30:33.110Z,22.20
2023-02-24T23:33:04.511Z,17.10
2023-02-24T23:38:06.571Z,22.30
2023-02-24T23:40:49.277Z,16.60
2023-02-24T23:43:21.292Z,24.50
2023-02-24T23:45:52.663Z,37.20
2023-02-24T23:50:57.601Z,21.10
2023-02-24T23:53:29.439Z,26.20
2023-02-24T23:56:00.432Z,23.60
2023-02-24T23:58:31.345Z,23.20
